sensor_id;sensor_type;location;lat;lon;timestamp;P1;durP1;ratioP1;P2;durP2;ratioP2
10839;SDS011;5473;42.706;23.328;2023-02-08T00:00:22;0.80;;;0.80;;
10839;SDS011;5473;42.706;23.328;2023-02-08T00:02:49;0.80;;;0.80;;
10839;SDS011;5473;42.706;23.328;2023-02-08T00:05:16;0.80;;;0.80;;
10839;SDS011;5473;42.706;23.328;2023-02-08T00:07:45;0.87;;;0.87;;
10839;SDS011;5473;42.706;23.328;2023-02-08T00:10:12;0.90;;;0.90;;
10839;SDS011;5473;42.706;23.328;2023-02-08T00:12:38;0.80;;;0.80;;
10839;SDS011;5473;42.706;23.328;2023-02-08T00:15:05;0.80;;;0.80;;
10839;SDS011;5473;42.706;23.328;2023-02-08T00:17:32;0.90;;;0.90;;
10839;SDS011;5473;42.706;23.328;2023-02-08T00:28:06;0.90;;;0.90;;
10839;SDS011;5473;42.706;23.328;2023-02-08T00:30:34;0.80;;;0.80;;
10839;SDS011;5473;42.706;23.328;2023-02-08T00:33:01;0.83;;;0.83;;
10839;SDS011;5473;42.706;23.328;2023-02-08T00:35:28;0.80;;;0.80;;
10839;SDS011;5473;42.706;23.328;2023-02-08T00:37:56;0.80;;;0.80;;
10839;SDS011;5473;42.706;23.328;2023-02-08T00:40:23;0.90;;;0.90;;
10839;SDS011;5473;42.706;23.328;2023-02-08T00:42:50;0.90;;;0.90;;
10839;SDS011;5473;42.706;23.328;2023-02-08T00:45:18;0.80;;;0.80;;
10839;SDS011;5473;42.706;23.328;2023-02-08T00:47:45;0.90;;;0.90;;
10839;SDS011;5473;42.706;23.328;2023-02-08T00:50:12;0.90;;;0.90;;
10839;SDS011;5473;42.706;23.328;2023-02-08T00:52:39;0.80;;;0.80;;
10839;SDS011;5473;42.706;23.328;2023-02-08T00:55:06;0.90;;;0.90;;
10839;SDS011;5473;42.706;23.328;2023-02-08T00:57:34;0.70;;;0.70;;
10839;SDS011;5473;42.706;23.328;2023-02-08T01:00:01;0.70;;;0.70;;
10839;SDS011;5473;42.706;23.328;2023-02-08T01:02:30;0.70;;;0.70;;
10839;SDS011;5473;42.706;23.328;2023-02-08T01:04:56;0.90;;;0.90;;
10839;SDS011;5473;42.706;23.328;2023-02-08T01:07:23;0.83;;;0.83;;
10839;SDS011;5473;42.706;23.328;2023-02-08T01:09:50;0.73;;;0.73;;
10839;SDS011;5473;42.706;23.328;2023-02-08T01:12:16;0.80;;;0.80;;
10839;SDS011;5473;42.706;23.328;2023-02-08T01:14:43;0.73;;;0.73;;
10839;SDS011;5473;42.706;23.328;2023-02-08T01:17:10;0.80;;;0.80;;
10839;SDS011;5473;42.706;23.328;2023-02-08T01:19:38;0.80;;;0.80;;
10839;SDS011;5473;42.706;23.328;2023-02-08T01:22:05;0.80;;;0.80;;
10839;SDS011;5473;42.706;23.328;2023-02-08T01:24:32;0.70;;;0.70;;
10839;SDS011;5473;42.706;23.328;2023-02-08T01:26:59;0.80;;;0.80;;
10839;SDS011;5473;42.706;23.328;2023-02-08T01:29:26;0.80;;;0.80;;
10839;SDS011;5473;42.706;23.328;2023-02-08T01:31:53;0.80;;;0.80;;
10839;SDS011;5473;42.706;23.328;2023-02-08T01:34:19;0.80;;;0.80;;
10839;SDS011;5473;42.706;23.328;2023-02-08T01:36:47;0.80;;;0.80;;
10839;SDS011;5473;42.706;23.328;2023-02-08T01:39:14;0.80;;;0.80;;
10839;SDS011;5473;42.706;23.328;2023-02-08T01:41:41;0.80;;;0.80;;
10839;SDS011;5473;42.706;23.328;2023-02-08T01:47:14;0.80;;;0.80;;
10839;SDS011;5473;42.706;23.328;2023-02-08T01:49:41;0.80;;;0.80;;
10839;SDS011;5473;42.706;23.328;2023-02-08T01:52:11;0.83;;;0.83;;
10839;SDS011;5473;42.706;23.328;2023-02-08T01:54:44;0.90;;;0.90;;
10839;SDS011;5473;42.706;23.328;2023-02-08T01:57:13;0.80;;;0.80;;
10839;SDS011;5473;42.706;23.328;2023-02-08T01:59:41;0.90;;;0.90;;
10839;SDS011;5473;42.706;23.328;2023-02-08T02:02:11;0.80;;;0.80;;
10839;SDS011;5473;42.706;23.328;2023-02-08T02:04:41;0.80;;;0.80;;
10839;SDS011;5473;42.706;23.328;2023-02-08T02:07:10;0.70;;;0.70;;
10839;SDS011;5473;42.706;23.328;2023-02-08T02:09:38;0.80;;;0.80;;
10839;SDS011;5473;42.706;23.328;2023-02-08T02:12:09;0.80;;;0.80;;
10839;SDS011;5473;42.706;23.328;2023-02-08T02:14:36;0.70;;;0.70;;
10839;SDS011;5473;42.706;23.328;2023-02-08T02:17:04;0.87;;;0.87;;
10839;SDS011;5473;42.706;23.328;2023-02-08T02:19:32;0.90;;;0.90;;
10839;SDS011;5473;42.706;23.328;2023-02-08T02:22:22;0.80;;;0.80;;
10839;SDS011;5473;42.706;23.328;2023-02-08T02:25:28;0.80;;;0.80;;
10839;SDS011;5473;42.706;23.328;2023-02-08T02:28:38;0.90;;;0.90;;
10839;SDS011;5473;42.706;23.328;2023-02-08T02:31:48;0.70;;;0.70;;
10839;SDS011;5473;42.706;23.328;2023-02-08T02:34:30;0.73;;;0.73;;
10839;SDS011;5473;42.706;23.328;2023-02-08T02:37:07;0.80;;;0.80;;
10839;SDS011;5473;42.706;23.328;2023-02-08T02:39:42;0.90;;;0.90;;
10839;SDS011;5473;42.706;23.328;2023-02-08T02:42:17;0.80;;;0.80;;
10839;SDS011;5473;42.706;23.328;2023-02-08T02:45:09;0.90;;;0.90;;
10839;SDS011;5473;42.706;23.328;2023-02-08T02:47:48;0.80;;;0.80;;
10839;SDS011;5473;42.706;23.328;2023-02-08T02:50:22;0.80;;;0.80;;
10839;SDS011;5473;42.706;23.328;2023-02-08T02:52:55;0.80;;;0.80;;
10839;SDS011;5473;42.706;23.328;2023-02-08T02:55:25;0.80;;;0.80;;
10839;SDS011;5473;42.706;23.328;2023-02-08T02:57:56;0.80;;;0.80;;
10839;SDS011;5473;42.706;23.328;2023-02-08T03:00:25;0.80;;;0.80;;
10839;SDS011;5473;42.706;23.328;2023-02-08T03:02:56;0.80;;;0.80;;
10839;SDS011;5473;42.706;23.328;2023-02-08T03:05:23;0.70;;;0.70;;
10839;SDS011;5473;42.706;23.328;2023-02-08T03:07:57;0.80;;;0.80;;
10839;SDS011;5473;42.706;23.328;2023-02-08T03:10:34;0.90;;;0.90;;
10839;SDS011;5473;42.706;23.328;2023-02-08T03:13:24;0.80;;;0.80;;
10839;SDS011;5473;42.706;23.328;2023-02-08T03:16:02;0.80;;;0.80;;
10839;SDS011;5473;42.706;23.328;2023-02-08T03:18:43;0.90;;;0.90;;
10839;SDS011;5473;42.706;23.328;2023-02-08T03:21:24;0.80;;;0.80;;
10839;SDS011;5473;42.706;23.328;2023-02-08T03:24:00;0.80;;;0.80;;
10839;SDS011;5473;42.706;23.328;2023-02-08T03:26:33;0.80;;;0.80;;
10839;SDS011;5473;42.706;23.328;2023-02-08T03:29:06;0.80;;;0.80;;
10839;SDS011;5473;42.706;23.328;2023-02-08T03:31:38;0.80;;;0.80;;
10839;SDS011;5473;42.706;23.328;2023-02-08T03:34:15;0.80;;;0.80;;
10839;SDS011;5473;42.706;23.328;2023-02-08T03:37:03;0.90;;;0.90;;
10839;SDS011;5473;42.706;23.328;2023-02-08T03:39:35;0.80;;;0.80;;
10839;SDS011;5473;42.706;23.328;2023-02-08T03:42:04;0.80;;;0.80;;
10839;SDS011;5473;42.706;23.328;2023-02-08T03:44:35;0.70;;;0.70;;
10839;SDS011;5473;42.706;23.328;2023-02-08T03:47:06;0.90;;;0.90;;
10839;SDS011;5473;42.706;23.328;2023-02-08T03:49:38;0.80;;;0.80;;
10839;SDS011;5473;42.706;23.328;2023-02-08T03:52:09;0.80;;;0.80;;
10839;SDS011;5473;42.706;23.328;2023-02-08T03:54:37;0.80;;;0.80;;
10839;SDS011;5473;42.706;23.328;2023-02-08T03:57:08;0.80;;;0.80;;
10839;SDS011;5473;42.706;23.328;2023-02-08T03:59:39;0.70;;;0.70;;
10839;SDS011;5473;42.706;23.328;2023-02-08T04:02:09;0.80;;;0.80;;
10839;SDS011;5473;42.706;23.328;2023-02-08T04:04:41;0.80;;;0.80;;
10839;SDS011;5473;42.706;23.328;2023-02-08T04:07:11;0.80;;;0.80;;
10839;SDS011;5473;42.706;23.328;2023-02-08T04:09:38;0.73;;;0.73;;
10839;SDS011;5473;42.706;23.328;2023-02-08T04:12:05;0.90;;;0.90;;
10839;SDS011;5473;42.706;23.328;2023-02-08T04:14:33;0.70;;;0.70;;
10839;SDS011;5473;42.706;23.328;2023-02-08T04:16:59;0.80;;;0.80;;
10839;SDS011;5473;42.706;23.328;2023-02-08T04:19:26;0.90;;;0.90;;
10839;SDS011;5473;42.706;23.328;2023-02-08T04:21:54;0.80;;;0.80;;
10839;SDS011;5473;42.706;23.328;2023-02-08T04:24:21;0.80;;;0.80;;
10839;SDS011;5473;42.706;23.328;2023-02-08T04:26:48;0.90;;;0.90;;
10839;SDS011;5473;42.706;23.328;2023-02-08T04:29:15;0.80;;;0.80;;
10839;SDS011;5473;42.706;23.328;2023-02-08T04:31:42;0.80;;;0.80;;
10839;SDS011;5473;42.706;23.328;2023-02-08T04:34:08;0.93;;;0.93;;
10839;SDS011;5473;42.706;23.328;2023-02-08T04:36:35;0.80;;;0.80;;
10839;SDS011;5473;42.706;23.328;2023-02-08T04:39:03;0.80;;;0.80;;
10839;SDS011;5473;42.706;23.328;2023-02-08T04:41:30;0.80;;;0.80;;
10839;SDS011;5473;42.706;23.328;2023-02-08T04:43:57;0.90;;;0.90;;
10839;SDS011;5473;42.706;23.328;2023-02-08T04:46:23;0.93;;;0.93;;
10839;SDS011;5473;42.706;23.328;2023-02-08T04:48:50;0.97;;;0.97;;
10839;SDS011;5473;42.706;23.328;2023-02-08T04:51:17;0.80;;;0.80;;
10839;SDS011;5473;42.706;23.328;2023-02-08T04:53:44;0.80;;;0.80;;
10839;SDS011;5473;42.706;23.328;2023-02-08T04:56:12;0.83;;;0.83;;
10839;SDS011;5473;42.706;23.328;2023-02-08T04:58:38;0.80;;;0.80;;
10839;SDS011;5473;42.706;23.328;2023-02-08T05:01:05;0.80;;;0.80;;
10839;SDS011;5473;42.706;23.328;2023-02-08T05:03:32;0.90;;;0.90;;
10839;SDS011;5473;42.706;23.328;2023-02-08T05:05:59;0.83;;;0.83;;
10839;SDS011;5473;42.706;23.328;2023-02-08T05:08:26;0.80;;;0.80;;
10839;SDS011;5473;42.706;23.328;2023-02-08T05:10:53;0.90;;;0.90;;
10839;SDS011;5473;42.706;23.328;2023-02-08T05:13:21;0.90;;;0.90;;
10839;SDS011;5473;42.706;23.328;2023-02-08T05:15:48;0.90;;;0.90;;
10839;SDS011;5473;42.706;23.328;2023-02-08T05:18:14;0.80;;;0.80;;
10839;SDS011;5473;42.706;23.328;2023-02-08T05:20:41;0.87;;;0.87;;
10839;SDS011;5473;42.706;23.328;2023-02-08T05:23:09;0.90;;;0.90;;
10839;SDS011;5473;42.706;23.328;2023-02-08T05:25:36;0.80;;;0.80;;
10839;SDS011;5473;42.706;23.328;2023-02-08T05:28:03;0.80;;;0.80;;
10839;SDS011;5473;42.706;23.328;2023-02-08T05:30:31;0.83;;;0.83;;
10839;SDS011;5473;42.706;23.328;2023-02-08T05:32:58;0.80;;;0.80;;
10839;SDS011;5473;42.706;23.328;2023-02-08T05:35:25;0.80;;;0.80;;
10839;SDS011;5473;42.706;23.328;2023-02-08T05:37:52;0.80;;;0.80;;
10839;SDS011;5473;42.706;23.328;2023-02-08T05:40:18;0.90;;;0.90;;
10839;SDS011;5473;42.706;23.328;2023-02-08T05:42:45;0.90;;;0.90;;
10839;SDS011;5473;42.706;23.328;2023-02-08T05:45:12;0.80;;;0.80;;
10839;SDS011;5473;42.706;23.328;2023-02-08T05:47:40;0.80;;;0.80;;
10839;SDS011;5473;42.706;23.328;2023-02-08T05:50:07;0.80;;;0.80;;
10839;SDS011;5473;42.706;23.328;2023-02-08T05:52:35;0.80;;;0.80;;
10839;SDS011;5473;42.706;23.328;2023-02-08T05:55:01;0.80;;;0.80;;
10839;SDS011;5473;42.706;23.328;2023-02-08T05:57:28;0.90;;;0.90;;
10839;SDS011;5473;42.706;23.328;2023-02-08T05:59:55;0.80;;;0.80;;
10839;SDS011;5473;42.706;23.328;2023-02-08T06:02:22;0.80;;;0.80;;
10839;SDS011;5473;42.706;23.328;2023-02-08T06:04:50;0.77;;;0.77;;
10839;SDS011;5473;42.706;23.328;2023-02-08T06:07:17;0.90;;;0.90;;
10839;SDS011;5473;42.706;23.328;2023-02-08T06:09:43;0.80;;;0.80;;
10839;SDS011;5473;42.706;23.328;2023-02-08T06:12:10;0.80;;;0.80;;
10839;SDS011;5473;42.706;23.328;2023-02-08T06:14:37;0.90;;;0.90;;
10839;SDS011;5473;42.706;23.328;2023-02-08T06:17:04;0.80;;;0.80;;
10839;SDS011;5473;42.706;23.328;2023-02-08T06:19:30;0.80;;;0.80;;
10839;SDS011;5473;42.706;23.328;2023-02-08T06:21:58;0.80;;;0.80;;
10839;SDS011;5473;42.706;23.328;2023-02-08T06:24:25;0.80;;;0.80;;
10839;SDS011;5473;42.706;23.328;2023-02-08T06:26:52;0.80;;;0.80;;
10839;SDS011;5473;42.706;23.328;2023-02-08T06:29:19;0.80;;;0.80;;
10839;SDS011;5473;42.706;23.328;2023-02-08T06:31:45;0.80;;;0.80;;
10839;SDS011;5473;42.706;23.328;2023-02-08T06:34:12;0.80;;;0.80;;
10839;SDS011;5473;42.706;23.328;2023-02-08T06:36:39;0.80;;;0.80;;
10839;SDS011;5473;42.706;23.328;2023-02-08T06:39:07;0.80;;;0.80;;
10839;SDS011;5473;42.706;23.328;2023-02-08T06:41:34;0.80;;;0.80;;
10839;SDS011;5473;42.706;23.328;2023-02-08T06:44:01;0.90;;;0.90;;
10839;SDS011;5473;42.706;23.328;2023-02-08T06:46:27;0.80;;;0.80;;
10839;SDS011;5473;42.706;23.328;2023-02-08T06:48:54;0.80;;;0.80;;
10839;SDS011;5473;42.706;23.328;2023-02-08T06:51:23;0.80;;;0.80;;
10839;SDS011;5473;42.706;23.328;2023-02-08T06:53:50;0.70;;;0.70;;
10839;SDS011;5473;42.706;23.328;2023-02-08T06:56:18;0.80;;;0.80;;
10839;SDS011;5473;42.706;23.328;2023-02-08T06:58:44;0.83;;;0.83;;
10839;SDS011;5473;42.706;23.328;2023-02-08T07:01:11;0.80;;;0.80;;
10839;SDS011;5473;42.706;23.328;2023-02-08T07:03:38;0.90;;;0.90;;
10839;SDS011;5473;42.706;23.328;2023-02-08T07:06:10;0.80;;;0.80;;
10839;SDS011;5473;42.706;23.328;2023-02-08T07:08:37;0.80;;;0.80;;
10839;SDS011;5473;42.706;23.328;2023-02-08T07:11:07;0.73;;;0.73;;
10839;SDS011;5473;42.706;23.328;2023-02-08T07:13:36;0.70;;;0.70;;
10839;SDS011;5473;42.706;23.328;2023-02-08T07:16:04;0.70;;;0.70;;
10839;SDS011;5473;42.706;23.328;2023-02-08T07:18:31;0.70;;;0.70;;
10839;SDS011;5473;42.706;23.328;2023-02-08T07:20:58;0.70;;;0.70;;
10839;SDS011;5473;42.706;23.328;2023-02-08T07:23:25;0.60;;;0.60;;
10839;SDS011;5473;42.706;23.328;2023-02-08T07:25:56;0.70;;;0.70;;
10839;SDS011;5473;42.706;23.328;2023-02-08T07:28:23;0.70;;;0.70;;
10839;SDS011;5473;42.706;23.328;2023-02-08T07:30:52;0.70;;;0.70;;
10839;SDS011;5473;42.706;23.328;2023-02-08T07:33:20;0.70;;;0.70;;
10839;SDS011;5473;42.706;23.328;2023-02-08T07:35:47;0.70;;;0.70;;
10839;SDS011;5473;42.706;23.328;2023-02-08T07:38:14;0.70;;;0.70;;
10839;SDS011;5473;42.706;23.328;2023-02-08T07:40:41;0.80;;;0.80;;
10839;SDS011;5473;42.706;23.328;2023-02-08T07:43:08;0.73;;;0.73;;
10839;SDS011;5473;42.706;23.328;2023-02-08T07:45:36;0.70;;;0.70;;
10839;SDS011;5473;42.706;23.328;2023-02-08T07:48:04;0.70;;;0.70;;
10839;SDS011;5473;42.706;23.328;2023-02-08T07:50:31;0.70;;;0.70;;
10839;SDS011;5473;42.706;23.328;2023-02-08T07:52:57;0.50;;;0.50;;
10839;SDS011;5473;42.706;23.328;2023-02-08T07:55:24;0.60;;;0.60;;
10839;SDS011;5473;42.706;23.328;2023-02-08T07:57:53;0.60;;;0.60;;
10839;SDS011;5473;42.706;23.328;2023-02-08T08:00:21;0.43;;;0.43;;
10839;SDS011;5473;42.706;23.328;2023-02-08T08:02:48;0.40;;;0.40;;
10839;SDS011;5473;42.706;23.328;2023-02-08T08:05:17;0.40;;;0.40;;
10839;SDS011;5473;42.706;23.328;2023-02-08T08:07:44;0.50;;;0.50;;
10839;SDS011;5473;42.706;23.328;2023-02-08T08:10:10;0.30;;;0.30;;
10839;SDS011;5473;42.706;23.328;2023-02-08T08:12:37;0.50;;;0.50;;
10839;SDS011;5473;42.706;23.328;2023-02-08T08:15:04;0.40;;;0.40;;
10839;SDS011;5473;42.706;23.328;2023-02-08T08:17:32;0.40;;;0.40;;
10839;SDS011;5473;42.706;23.328;2023-02-08T08:19:58;0.40;;;0.40;;
10839;SDS011;5473;42.706;23.328;2023-02-08T08:22:26;0.30;;;0.30;;
10839;SDS011;5473;42.706;23.328;2023-02-08T08:24:53;0.30;;;0.30;;
10839;SDS011;5473;42.706;23.328;2023-02-08T08:27:20;0.50;;;0.50;;
10839;SDS011;5473;42.706;23.328;2023-02-08T08:29:47;0.50;;;0.50;;
10839;SDS011;5473;42.706;23.328;2023-02-08T08:32:13;0.50;;;0.50;;
10839;SDS011;5473;42.706;23.328;2023-02-08T08:34:40;0.40;;;0.40;;
10839;SDS011;5473;42.706;23.328;2023-02-08T08:37:07;0.40;;;0.40;;
10839;SDS011;5473;42.706;23.328;2023-02-08T08:39:36;0.40;;;0.40;;
10839;SDS011;5473;42.706;23.328;2023-02-08T08:42:02;0.40;;;0.40;;
10839;SDS011;5473;42.706;23.328;2023-02-08T08:44:29;0.40;;;0.40;;
10839;SDS011;5473;42.706;23.328;2023-02-08T08:46:57;0.33;;;0.33;;
10839;SDS011;5473;42.706;23.328;2023-02-08T08:49:25;0.30;;;0.30;;
10839;SDS011;5473;42.706;23.328;2023-02-08T08:51:53;0.40;;;0.40;;
10839;SDS011;5473;42.706;23.328;2023-02-08T08:54:20;0.40;;;0.40;;
10839;SDS011;5473;42.706;23.328;2023-02-08T08:56:49;0.30;;;0.30;;
10839;SDS011;5473;42.706;23.328;2023-02-08T08:59:15;0.40;;;0.40;;
10839;SDS011;5473;42.706;23.328;2023-02-08T09:01:42;0.30;;;0.30;;
10839;SDS011;5473;42.706;23.328;2023-02-08T09:04:09;0.30;;;0.30;;
10839;SDS011;5473;42.706;23.328;2023-02-08T09:06:36;0.30;;;0.30;;
10839;SDS011;5473;42.706;23.328;2023-02-08T09:09:03;0.30;;;0.30;;
10839;SDS011;5473;42.706;23.328;2023-02-08T09:11:30;0.30;;;0.30;;
10839;SDS011;5473;42.706;23.328;2023-02-08T09:14:00;0.30;;;0.30;;
10839;SDS011;5473;42.706;23.328;2023-02-08T09:16:27;0.43;;;0.43;;
10839;SDS011;5473;42.706;23.328;2023-02-08T09:18:54;0.40;;;0.40;;
10839;SDS011;5473;42.706;23.328;2023-02-08T09:21:21;0.40;;;0.40;;
10839;SDS011;5473;42.706;23.328;2023-02-08T09:23:49;0.43;;;0.43;;
10839;SDS011;5473;42.706;23.328;2023-02-08T09:26:17;0.40;;;0.40;;
10839;SDS011;5473;42.706;23.328;2023-02-08T09:28:44;0.50;;;0.50;;
10839;SDS011;5473;42.706;23.328;2023-02-08T09:31:14;0.50;;;0.50;;
10839;SDS011;5473;42.706;23.328;2023-02-08T09:33:44;0.40;;;0.40;;
10839;SDS011;5473;42.706;23.328;2023-02-08T09:36:11;0.47;;;0.47;;
10839;SDS011;5473;42.706;23.328;2023-02-08T09:38:38;0.40;;;0.40;;
10839;SDS011;5473;42.706;23.328;2023-02-08T09:41:12;0.57;;;0.57;;
10839;SDS011;5473;42.706;23.328;2023-02-08T09:43:55;0.50;;;0.50;;
10839;SDS011;5473;42.706;23.328;2023-02-08T09:46:34;0.60;;;0.60;;
10839;SDS011;5473;42.706;23.328;2023-02-08T09:49:06;0.50;;;0.50;;
10839;SDS011;5473;42.706;23.328;2023-02-08T09:51:40;0.50;;;0.50;;
10839;SDS011;5473;42.706;23.328;2023-02-08T09:54:12;0.60;;;0.60;;
10839;SDS011;5473;42.706;23.328;2023-02-08T09:56:43;0.40;;;0.40;;
10839;SDS011;5473;42.706;23.328;2023-02-08T09:59:12;0.40;;;0.40;;
10839;SDS011;5473;42.706;23.328;2023-02-08T10:01:43;0.50;;;0.50;;
10839;SDS011;5473;42.706;23.328;2023-02-08T10:04:14;0.50;;;0.50;;
10839;SDS011;5473;42.706;23.328;2023-02-08T10:06:47;0.53;;;0.53;;
10839;SDS011;5473;42.706;23.328;2023-02-08T10:09:14;0.50;;;0.50;;
10839;SDS011;5473;42.706;23.328;2023-02-08T10:11:48;0.50;;;0.50;;
10839;SDS011;5473;42.706;23.328;2023-02-08T10:14:26;0.60;;;0.60;;
10839;SDS011;5473;42.706;23.328;2023-02-08T10:17:08;0.53;;;0.53;;
10839;SDS011;5473;42.706;23.328;2023-02-08T10:19:53;0.50;;;0.50;;
10839;SDS011;5473;42.706;23.328;2023-02-08T10:22:30;0.60;;;0.60;;
10839;SDS011;5473;42.706;23.328;2023-02-08T10:28:11;0.60;;;0.60;;
10839;SDS011;5473;42.706;23.328;2023-02-08T10:30:52;0.50;;;0.50;;
10839;SDS011;5473;42.706;23.328;2023-02-08T10:33:25;0.53;;;0.53;;
10839;SDS011;5473;42.706;23.328;2023-02-08T10:35:57;0.60;;;0.60;;
10839;SDS011;5473;42.706;23.328;2023-02-08T10:38:24;0.60;;;0.60;;
10839;SDS011;5473;42.706;23.328;2023-02-08T10:40:54;0.70;;;0.70;;
10839;SDS011;5473;42.706;23.328;2023-02-08T10:43:25;0.60;;;0.60;;
10839;SDS011;5473;42.706;23.328;2023-02-08T10:46:01;0.60;;;0.60;;
10839;SDS011;5473;42.706;23.328;2023-02-08T10:48:37;0.67;;;0.67;;
10839;SDS011;5473;42.706;23.328;2023-02-08T10:51:12;0.70;;;0.70;;
10839;SDS011;5473;42.706;23.328;2023-02-08T10:53:41;0.70;;;0.70;;
10839;SDS011;5473;42.706;23.328;2023-02-08T10:56:10;0.70;;;0.70;;
10839;SDS011;5473;42.706;23.328;2023-02-08T10:58:53;0.60;;;0.60;;
10839;SDS011;5473;42.706;23.328;2023-02-08T11:01:20;0.70;;;0.70;;
10839;SDS011;5473;42.706;23.328;2023-02-08T11:04:01;0.70;;;0.70;;
10839;SDS011;5473;42.706;23.328;2023-02-08T11:06:30;0.70;;;0.70;;
10839;SDS011;5473;42.706;23.328;2023-02-08T11:08:57;0.70;;;0.70;;
10839;SDS011;5473;42.706;23.328;2023-02-08T11:11:24;0.70;;;0.70;;
10839;SDS011;5473;42.706;23.328;2023-02-08T11:13:53;0.63;;;0.63;;
10839;SDS011;5473;42.706;23.328;2023-02-08T11:16:33;0.60;;;0.60;;
10839;SDS011;5473;42.706;23.328;2023-02-08T11:19:01;0.70;;;0.70;;
10839;SDS011;5473;42.706;23.328;2023-02-08T11:21:32;0.70;;;0.70;;
10839;SDS011;5473;42.706;23.328;2023-02-08T11:24:01;0.70;;;0.70;;
10839;SDS011;5473;42.706;23.328;2023-02-08T11:26:43;0.80;;;0.80;;
10839;SDS011;5473;42.706;23.328;2023-02-08T11:29:11;0.80;;;0.80;;
10839;SDS011;5473;42.706;23.328;2023-02-08T11:31:40;0.70;;;0.70;;
10839;SDS011;5473;42.706;23.328;2023-02-08T11:34:24;0.70;;;0.70;;
10839;SDS011;5473;42.706;23.328;2023-02-08T11:36:52;0.60;;;0.60;;
10839;SDS011;5473;42.706;23.328;2023-02-08T11:39:21;0.70;;;0.70;;
10839;SDS011;5473;42.706;23.328;2023-02-08T11:41:53;0.70;;;0.70;;
10839;SDS011;5473;42.706;23.328;2023-02-08T11:44:25;0.63;;;0.63;;
10839;SDS011;5473;42.706;23.328;2023-02-08T11:46:55;0.70;;;0.70;;
10839;SDS011;5473;42.706;23.328;2023-02-08T11:49:26;0.70;;;0.70;;
10839;SDS011;5473;42.706;23.328;2023-02-08T11:51:57;0.60;;;0.60;;
10839;SDS011;5473;42.706;23.328;2023-02-08T11:54:31;0.60;;;0.60;;
10839;SDS011;5473;42.706;23.328;2023-02-08T11:57:09;0.60;;;0.60;;
10839;SDS011;5473;42.706;23.328;2023-02-08T11:59:38;0.50;;;0.50;;
10839;SDS011;5473;42.706;23.328;2023-02-08T12:04:55;0.50;;;0.50;;
10839;SDS011;5473;42.706;23.328;2023-02-08T12:07:23;0.50;;;0.50;;
10839;SDS011;5473;42.706;23.328;2023-02-08T12:10:06;0.50;;;0.50;;
10839;SDS011;5473;42.706;23.328;2023-02-08T12:12:51;0.60;;;0.60;;
10839;SDS011;5473;42.706;23.328;2023-02-08T12:15:37;0.60;;;0.60;;
10839;SDS011;5473;42.706;23.328;2023-02-08T12:18:14;0.60;;;0.60;;
10839;SDS011;5473;42.706;23.328;2023-02-08T12:20:54;0.70;;;0.70;;
10839;SDS011;5473;42.706;23.328;2023-02-08T12:29:15;0.63;;;0.63;;
10839;SDS011;5473;42.706;23.328;2023-02-08T12:31:54;0.70;;;0.70;;
10839;SDS011;5473;42.706;23.328;2023-02-08T12:34:32;0.60;;;0.60;;
10839;SDS011;5473;42.706;23.328;2023-02-08T12:37:14;0.60;;;0.60;;
10839;SDS011;5473;42.706;23.328;2023-02-08T12:40:13;0.60;;;0.60;;
10839;SDS011;5473;42.706;23.328;2023-02-08T12:43:08;0.60;;;0.60;;
10839;SDS011;5473;42.706;23.328;2023-02-08T12:51:38;0.60;;;0.60;;
10839;SDS011;5473;42.706;23.328;2023-02-08T12:54:15;0.63;;;0.63;;
10839;SDS011;5473;42.706;23.328;2023-02-08T12:56:49;0.60;;;0.60;;
10839;SDS011;5473;42.706;23.328;2023-02-08T12:59:18;0.70;;;0.70;;
10839;SDS011;5473;42.706;23.328;2023-02-08T13:01:49;0.70;;;0.70;;
10839;SDS011;5473;42.706;23.328;2023-02-08T13:04:22;0.70;;;0.70;;
10839;SDS011;5473;42.706;23.328;2023-02-08T13:06:55;0.70;;;0.70;;
10839;SDS011;5473;42.706;23.328;2023-02-08T13:09:29;0.70;;;0.70;;
10839;SDS011;5473;42.706;23.328;2023-02-08T13:12:06;0.70;;;0.70;;
10839;SDS011;5473;42.706;23.328;2023-02-08T13:14:39;0.70;;;0.70;;
10839;SDS011;5473;42.706;23.328;2023-02-08T13:17:11;0.70;;;0.70;;
10839;SDS011;5473;42.706;23.328;2023-02-08T13:19:45;0.70;;;0.70;;
10839;SDS011;5473;42.706;23.328;2023-02-08T13:22:16;0.60;;;0.60;;
10839;SDS011;5473;42.706;23.328;2023-02-08T13:24:45;0.70;;;0.70;;
10839;SDS011;5473;42.706;23.328;2023-02-08T13:27:14;0.70;;;0.70;;
10839;SDS011;5473;42.706;23.328;2023-02-08T13:29:43;0.70;;;0.70;;
10839;SDS011;5473;42.706;23.328;2023-02-08T13:32:14;0.70;;;0.70;;
10839;SDS011;5473;42.706;23.328;2023-02-08T13:34:47;0.70;;;0.70;;
10839;SDS011;5473;42.706;23.328;2023-02-08T13:37:18;0.70;;;0.70;;
10839;SDS011;5473;42.706;23.328;2023-02-08T13:39:48;0.70;;;0.70;;
10839;SDS011;5473;42.706;23.328;2023-02-08T13:42:26;0.60;;;0.60;;
10839;SDS011;5473;42.706;23.328;2023-02-08T13:44:55;0.70;;;0.70;;
10839;SDS011;5473;42.706;23.328;2023-02-08T13:47:25;0.70;;;0.70;;
10839;SDS011;5473;42.706;23.328;2023-02-08T13:49:55;0.70;;;0.70;;
10839;SDS011;5473;42.706;23.328;2023-02-08T13:58:27;0.80;;;0.80;;
10839;SDS011;5473;42.706;23.328;2023-02-08T14:01:23;0.70;;;0.70;;
10839;SDS011;5473;42.706;23.328;2023-02-08T14:06:44;0.60;;;0.60;;
10839;SDS011;5473;42.706;23.328;2023-02-08T14:09:15;0.70;;;0.70;;
10839;SDS011;5473;42.706;23.328;2023-02-08T14:11:50;0.70;;;0.70;;
10839;SDS011;5473;42.706;23.328;2023-02-08T14:14:22;0.70;;;0.70;;
10839;SDS011;5473;42.706;23.328;2023-02-08T14:17:07;0.70;;;0.70;;
10839;SDS011;5473;42.706;23.328;2023-02-08T14:19:43;0.60;;;0.60;;
10839;SDS011;5473;42.706;23.328;2023-02-08T14:22:14;0.70;;;0.70;;
10839;SDS011;5473;42.706;23.328;2023-02-08T14:24:44;0.70;;;0.70;;
10839;SDS011;5473;42.706;23.328;2023-02-08T14:27:19;0.77;;;0.77;;
10839;SDS011;5473;42.706;23.328;2023-02-08T14:29:54;0.70;;;0.70;;
10839;SDS011;5473;42.706;23.328;2023-02-08T14:32:23;0.70;;;0.70;;
10839;SDS011;5473;42.706;23.328;2023-02-08T14:34:57;0.70;;;0.70;;
10839;SDS011;5473;42.706;23.328;2023-02-08T14:37:28;0.77;;;0.77;;
10839;SDS011;5473;42.706;23.328;2023-02-08T14:43:00;0.80;;;0.80;;
10839;SDS011;5473;42.706;23.328;2023-02-08T14:45:30;0.70;;;0.70;;
10839;SDS011;5473;42.706;23.328;2023-02-08T14:48:03;0.70;;;0.70;;
10839;SDS011;5473;42.706;23.328;2023-02-08T14:50:47;0.70;;;0.70;;
10839;SDS011;5473;42.706;23.328;2023-02-08T14:53:22;0.70;;;0.70;;
10839;SDS011;5473;42.706;23.328;2023-02-08T14:55:53;0.80;;;0.80;;
10839;SDS011;5473;42.706;23.328;2023-02-08T14:58:30;0.70;;;0.70;;
10839;SDS011;5473;42.706;23.328;2023-02-08T15:01:00;0.80;;;0.80;;
10839;SDS011;5473;42.706;23.328;2023-02-08T15:03:31;0.80;;;0.80;;
10839;SDS011;5473;42.706;23.328;2023-02-08T15:08:56;0.70;;;0.70;;
10839;SDS011;5473;42.706;23.328;2023-02-08T15:11:24;0.80;;;0.80;;
10839;SDS011;5473;42.706;23.328;2023-02-08T15:13:55;0.73;;;0.73;;
10839;SDS011;5473;42.706;23.328;2023-02-08T15:16:25;0.70;;;0.70;;
10839;SDS011;5473;42.706;23.328;2023-02-08T15:18:57;0.80;;;0.80;;
10839;SDS011;5473;42.706;23.328;2023-02-08T15:21:27;0.80;;;0.80;;
10839;SDS011;5473;42.706;23.328;2023-02-08T15:24:01;0.80;;;0.80;;
10839;SDS011;5473;42.706;23.328;2023-02-08T15:26:30;0.80;;;0.80;;
10839;SDS011;5473;42.706;23.328;2023-02-08T15:28:58;0.70;;;0.70;;
10839;SDS011;5473;42.706;23.328;2023-02-08T15:31:27;0.80;;;0.80;;
10839;SDS011;5473;42.706;23.328;2023-02-08T15:33:57;0.80;;;0.80;;
10839;SDS011;5473;42.706;23.328;2023-02-08T15:36:27;0.80;;;0.80;;
10839;SDS011;5473;42.706;23.328;2023-02-08T15:38:57;0.70;;;0.70;;
10839;SDS011;5473;42.706;23.328;2023-02-08T15:41:27;0.80;;;0.80;;
10839;SDS011;5473;42.706;23.328;2023-02-08T15:44:08;0.80;;;0.80;;
10839;SDS011;5473;42.706;23.328;2023-02-08T15:46:42;0.80;;;0.80;;
10839;SDS011;5473;42.706;23.328;2023-02-08T15:49:11;0.70;;;0.70;;
10839;SDS011;5473;42.706;23.328;2023-02-08T15:51:40;0.80;;;0.80;;